createdAt,value
2023-07-20T00:00:11.073Z,52.11
2023-07-20T00:02:40.207Z,52.21
2023-07-20T00:05:08.543Z,52.63
2023-07-20T00:07:36.290Z,52.80
2023-07-20T00:10:03.938Z,52.89
2023-07-20T00:12:31.539Z,53.64
2023-07-20T00:14:59.308Z,53.41
2023-07-20T00:17:26.977Z,54.12
2023-07-20T00:19:56.270Z,53.73
2023-07-20T00:22:23.860Z,54.21
2023-07-20T00:24:51.705Z,54.39
2023-07-20T00:27:19.316Z,54.53
2023-07-20T00:29:46.954Z,54.66
2023-07-20T00:32:14.630Z,54.71
2023-07-20T00:34:42.415Z,54.66
2023-07-20T00:37:11.431Z,55.25
2023-07-20T00:39:39.791Z,55.34
2023-07-20T00:42:07.950Z,55.54
2023-07-20T00:44:36.056Z,55.53
2023-07-20T00:47:03.800Z,55.89
2023-07-20T00:49:34.868Z,55.94
2023-07-20T00:52:05.190Z,56.04
2023-07-20T00:54:34.471Z,55.62
2023-07-20T00:57:03.276Z,55.42
2023-07-20T00:59:31.656Z,55.99
2023-07-20T01:01:59.488Z,56.52
2023-07-20T01:04:27.933Z,56.39
2023-07-20T01:09:45.985Z,56.28
2023-07-20T01:12:18.892Z,56.96
2023-07-20T01:14:47.263Z,57.38
2023-07-20T01:17:14.987Z,57.80
2023-07-20T01:19:42.667Z,57.68
2023-07-20T01:22:23.615Z,57.13
2023-07-20T01:25:09.803Z,57.45
2023-07-20T01:28:13.316Z,57.65
2023-07-20T01:30:57.780Z,58.13
2023-07-20T01:33:28.248Z,57.91
2023-07-20T01:35:59.152Z,58.51
2023-07-20T01:38:27.460Z,59.00
2023-07-20T01:40:55.494Z,58.77
2023-07-20T01:43:23.728Z,58.91
2023-07-20T01:45:51.506Z,58.85
2023-07-20T01:48:19.264Z,59.74
2023-07-20T01:50:48.886Z,59.77
2023-07-20T01:53:16.613Z,60.58
2023-07-20T01:55:44.237Z,60.81
2023-07-20T01:58:11.922Z,60.09
2023-07-20T02:00:39.982Z,60.71
2023-07-20T02:03:08.777Z,60.78
2023-07-20T02:05:36.721Z,60.68
2023-07-20T02:08:06.335Z,60.72
2023-07-20T02:10:34.195Z,60.94
2023-07-20T02:13:02.014Z,60.86
2023-07-20T02:15:29.670Z,61.16
2023-07-20T02:17:57.482Z,61.21
2023-07-20T02:20:25.217Z,61.10
2023-07-20T02:22:53.455Z,61.31
2023-07-20T02:25:22.788Z,61.38
2023-07-20T02:27:50.495Z,61.65
2023-07-20T02:30:18.724Z,61.64
2023-07-20T02:32:46.771Z,61.49
2023-07-20T02:35:14.902Z,61.73
2023-07-20T02:37:42.699Z,62.21
2023-07-20T02:40:11.159Z,62.86
2023-07-20T02:42:40.895Z,62.84
2023-07-20T02:45:09.962Z,62.89
2023-07-20T02:47:37.857Z,63.06
2023-07-20T02:50:08.134Z,63.44
2023-07-20T02:52:36.098Z,64.32
2023-07-20T02:55:03.769Z,63.69
2023-07-20T02:57:31.447Z,64.16
2023-07-20T03:00:00.500Z,64.74
2023-07-20T03:02:28.186Z,64.94
2023-07-20T03:04:56.267Z,65.34
2023-07-20T03:07:24.161Z,65.57
2023-07-20T03:09:52.635Z,65.15
2023-07-20T03:12:20.248Z,65.97
2023-07-20T03:14:47.934Z,65.76
2023-07-20T03:17:17.137Z,64.74
2023-07-20T03:19:44.863Z,65.71
2023-07-20T03:22:12.546Z,65.47
2023-07-20T03:24:40.166Z,65.94
2023-07-20T03:27:08.541Z,66.55
2023-07-20T03:29:36.413Z,67.07
2023-07-20T03:32:04.058Z,66.85
2023-07-20T03:34:33.184Z,66.83
2023-07-20T03:37:01.774Z,66.76
2023-07-20T03:39:29.729Z,67.26
2023-07-20T03:41:57.415Z,67.01
2023-07-20T03:44:25.197Z,67.41
2023-07-20T03:46:52.844Z,67.09
2023-07-20T03:49:20.875Z,67.26
2023-07-20T03:51:50.103Z,67.29
2023-07-20T03:54:17.873Z,66.94
2023-07-20T03:56:45.746Z,66.95
2023-07-20T03:59:14.182Z,66.40
2023-07-20T04:01:41.953Z,65.99
2023-07-20T04:04:10.095Z,65.64
2023-07-20T04:06:37.793Z,66.02
2023-07-20T04:09:06.980Z,66.03
2023-07-20T04:11:34.783Z,66.33
2023-07-20T04:14:02.375Z,66.52
2023-07-20T04:16:30.400Z,66.17
2023-07-20T04:18:58.342Z,65.98
2023-07-20T04:21:28.933Z,66.54
2023-07-20T04:23:56.665Z,65.36
2023-07-20T04:26:25.912Z,65.24
2023-07-20T04:28:54.095Z,64.57
2023-07-20T04:31:21.918Z,64.06
2023-07-20T04:33:49.603Z,64.55
2023-07-20T04:36:20.461Z,64.35
2023-07-20T04:38:48.568Z,63.90
2023-07-20T04:41:16.452Z,64.53
2023-07-20T04:43:46.506Z,65.21
2023-07-20T04:46:14.299Z,65.30
2023-07-20T04:48:42.532Z,64.24
2023-07-20T04:51:11.568Z,63.02
2023-07-20T04:53:39.525Z,62.60
2023-07-20T04:56:07.259Z,61.46
2023-07-20T04:58:34.949Z,61.17
2023-07-20T05:01:03.921Z,60.76
2023-07-20T05:03:31.604Z,60.97
2023-07-20T05:05:59.766Z,59.77
2023-07-20T05:08:27.986Z,58.63
2023-07-20T05:10:55.615Z,59.42
2023-07-20T05:13:23.318Z,58.00
2023-07-20T05:15:53.753Z,57.10
2023-07-20T05:18:23.088Z,57.61
2023-07-20T05:20:51.482Z,57.09
2023-07-20T05:23:20.768Z,56.74
2023-07-20T05:25:48.905Z,56.95
2023-07-20T05:28:16.778Z,57.50
2023-07-20T05:30:44.404Z,56.69
2023-07-20T05:33:12.091Z,56.70
2023-07-20T05:35:41.338Z,56.40
2023-07-20T05:38:09.061Z,55.96
2023-07-20T05:40:40.716Z,56.08
2023-07-20T05:43:08.446Z,56.67
2023-07-20T05:45:36.823Z,56.10
2023-07-20T05:48:04.863Z,56.01
2023-07-20T05:50:32.534Z,56.44
2023-07-20T05:53:01.638Z,57.20
2023-07-20T05:55:29.222Z,56.09
2023-07-20T05:57:57.321Z,55.01
2023-07-20T06:00:27.402Z,54.14
2023-07-20T06:02:56.119Z,53.67
2023-07-20T06:05:26.408Z,52.11
2023-07-20T06:07:58.519Z,50.92
2023-07-20T06:10:27.799Z,50.21
2023-07-20T06:12:56.410Z,52.54
2023-07-20T06:15:28.716Z,52.60
2023-07-20T06:17:59.018Z,50.76
2023-07-20T06:20:27.296Z,50.45
2023-07-20T06:22:55.642Z,51.42
2023-07-20T06:25:23.386Z,51.27
2023-07-20T06:27:53.257Z,50.91
2023-07-20T06:30:21.426Z,49.38
2023-07-20T06:32:49.698Z,48.14
2023-07-20T06:35:18.676Z,47.34
2023-07-20T06:37:46.441Z,46.81
2023-07-20T06:45:17.766Z,46.47
2023-07-20T06:47:45.527Z,47.38
2023-07-20T06:50:17.258Z,45.33
2023-07-20T06:52:45.644Z,45.12
2023-07-20T06:55:13.474Z,45.94
2023-07-20T06:57:41.938Z,48.22
2023-07-20T07:00:13.468Z,47.79
2023-07-20T07:02:42.541Z,47.37
2023-07-20T07:07:41.732Z,47.78
2023-07-20T07:10:11.738Z,46.74
2023-07-20T07:12:40.433Z,45.80
2023-07-20T07:15:08.890Z,48.13
2023-07-20T07:17:38.587Z,47.78
2023-07-20T07:20:11.818Z,46.54
2023-07-20T07:25:23.422Z,49.18
2023-07-20T07:27:52.479Z,50.23
2023-07-20T07:30:20.395Z,49.72
2023-07-20T07:32:48.069Z,49.80
2023-07-20T07:35:17.166Z,49.71
2023-07-20T07:37:57.207Z,50.11
2023-07-20T07:40:25.674Z,49.40
2023-07-20T07:42:53.328Z,48.03
2023-07-20T07:45:20.937Z,47.55
2023-07-20T07:47:48.721Z,46.01
2023-07-20T07:50:18.096Z,44.19
2023-07-20T07:52:45.881Z,43.95
2023-07-20T07:55:13.567Z,43.37
2023-07-20T07:57:41.226Z,43.09
2023-07-20T08:00:13.520Z,44.34
2023-07-20T08:02:41.376Z,43.72
2023-07-20T08:05:09.251Z,43.27
2023-07-20T08:07:38.819Z,43.31
2023-07-20T08:10:07.639Z,41.51
2023-07-20T08:12:35.511Z,42.35
2023-07-20T08:15:03.192Z,41.62
2023-07-20T08:17:31.110Z,40.40
2023-07-20T08:19:59.039Z,41.43
2023-07-20T08:22:27.136Z,42.53
2023-07-20T08:24:56.875Z,41.62
2023-07-20T08:27:26.706Z,42.58
2023-07-20T08:29:54.466Z,41.78
2023-07-20T08:32:22.408Z,40.79
2023-07-20T08:34:50.090Z,39.71
2023-07-20T08:37:17.791Z,38.25
2023-07-20T08:39:45.547Z,39.91
2023-07-20T08:42:16.999Z,38.38
2023-07-20T08:44:45.985Z,37.85
2023-07-20T08:47:16.132Z,38.04
2023-07-20T08:49:44.217Z,39.07
2023-07-20T08:52:12.992Z,38.69
2023-07-20T08:54:41.721Z,38.10
2023-07-20T08:57:10.363Z,39.19
2023-07-20T08:59:40.678Z,39.09
2023-07-20T09:02:18.360Z,39.00
2023-07-20T09:04:46.991Z,37.83
2023-07-20T09:07:16.764Z,39.88
2023-07-20T09:09:45.169Z,39.52
2023-07-20T09:12:16.830Z,39.38
2023-07-20T09:14:46.582Z,39.09
2023-07-20T09:17:18.131Z,38.89
2023-07-20T09:19:49.763Z,38.22
2023-07-20T09:22:18.550Z,37.38
2023-07-20T09:24:47.058Z,37.08
2023-07-20T09:27:14.887Z,36.20
2023-07-20T09:29:53.908Z,34.06
2023-07-20T09:32:25.348Z,34.43
2023-07-20T09:34:53.874Z,33.30
2023-07-20T09:37:24.856Z,33.29
2023-07-20T09:44:58.719Z,34.89
2023-07-20T09:47:28.946Z,35.65
2023-07-20T09:55:05.306Z,36.69
2023-07-20T09:57:35.267Z,35.62
2023-07-20T10:02:44.502Z,34.08
2023-07-20T10:05:15.290Z,35.23
2023-07-20T10:07:48.217Z,35.84
2023-07-20T10:10:18.160Z,34.35
2023-07-20T10:12:49.051Z,35.53
2023-07-20T10:15:25.329Z,35.87
2023-07-20T10:18:03.958Z,35.09
2023-07-20T10:20:34.629Z,34.56
2023-07-20T10:23:03.580Z,34.46
2023-07-20T10:25:32.692Z,34.06
2023-07-20T10:28:01.018Z,33.57
2023-07-20T10:30:30.436Z,33.35
2023-07-20T10:32:58.311Z,32.44
2023-07-20T10:35:26.017Z,32.49
2023-07-20T10:37:56.234Z,31.55
2023-07-20T10:40:32.598Z,31.17
2023-07-20T10:43:08.466Z,31.86
2023-07-20T10:45:43.155Z,30.81
2023-07-20T10:48:18.350Z,31.21
2023-07-20T10:50:46.314Z,32.68
2023-07-20T10:53:16.738Z,31.62
2023-07-20T10:55:44.999Z,32.21
2023-07-20T10:58:15.235Z,30.35
2023-07-20T11:01:05.207Z,30.13
2023-07-20T11:03:37.979Z,29.62
2023-07-20T11:06:37.436Z,29.77
2023-07-20T11:09:09.748Z,28.74
2023-07-20T11:11:38.771Z,30.16
2023-07-20T11:14:08.727Z,27.48
2023-07-20T11:16:39.193Z,27.30
2023-07-20T11:19:08.781Z,28.07
2023-07-20T11:21:52.098Z,27.49
2023-07-20T11:24:28.430Z,25.93
2023-07-20T11:26:56.961Z,27.31
2023-07-20T11:29:32.036Z,26.64
2023-07-20T11:32:05.056Z,27.75
2023-07-20T11:34:34.593Z,28.11
2023-07-20T11:39:35.023Z,26.66
2023-07-20T11:42:02.804Z,26.50
2023-07-20T11:44:31.760Z,25.42
2023-07-20T11:47:05.475Z,25.81
2023-07-20T11:49:38.663Z,26.06
2023-07-20T11:52:08.236Z,28.91
2023-07-20T11:54:36.683Z,30.14
2023-07-20T11:57:06.231Z,28.81
2023-07-20T11:59:34.560Z,28.92
2023-07-20T12:02:05.378Z,29.48
2023-07-20T12:04:33.905Z,29.26
2023-07-20T12:07:02.033Z,29.48
2023-07-20T12:09:38.116Z,30.80
2023-07-20T12:12:14.370Z,29.53
2023-07-20T12:14:42.110Z,29.64
2023-07-20T12:17:11.659Z,31.67
2023-07-20T12:19:40.822Z,30.58
2023-07-20T12:22:08.991Z,30.24
2023-07-20T12:24:37.078Z,30.53
2023-07-20T12:27:05.968Z,31.80
2023-07-20T12:29:37.202Z,32.00
2023-07-20T12:32:05.599Z,32.21
2023-07-20T12:34:34.985Z,31.49
2023-07-20T12:37:05.939Z,32.34
2023-07-20T12:39:34.051Z,32.88
2023-07-20T12:42:01.981Z,31.14
2023-07-20T12:44:30.252Z,31.12
2023-07-20T12:46:58.024Z,31.11
2023-07-20T12:49:25.782Z,31.79
2023-07-20T12:51:55.121Z,32.56
2023-07-20T12:54:23.098Z,33.56
2023-07-20T12:59:21.655Z,31.50
2023-07-20T13:01:49.313Z,31.90
2023-07-20T13:04:17.368Z,31.74
2023-07-20T13:06:47.942Z,31.72
2023-07-20T13:09:17.181Z,31.90
2023-07-20T13:11:45.206Z,32.54
2023-07-20T13:14:13.828Z,31.21
2023-07-20T13:16:41.570Z,31.04
2023-07-20T13:19:09.314Z,31.80
2023-07-20T13:21:37.890Z,30.46
2023-07-20T13:24:06.733Z,29.18
2023-07-20T13:26:36.712Z,30.04
2023-07-20T13:29:04.699Z,28.95
2023-07-20T13:31:34.078Z,27.75
2023-07-20T13:34:04.179Z,27.18
2023-07-20T13:36:32.295Z,29.35
2023-07-20T13:39:00.743Z,30.00
2023-07-20T13:41:30.154Z,29.26
2023-07-20T13:43:59.908Z,28.96
2023-07-20T13:48:59.033Z,30.33
2023-07-20T13:51:28.176Z,30.42
2023-07-20T13:53:56.396Z,30.40
2023-07-20T13:56:24.076Z,29.34
2023-07-20T13:58:51.843Z,28.60
2023-07-20T14:03:54.047Z,28.79
2023-07-20T14:06:24.539Z,28.62
2023-07-20T14:08:54.344Z,28.67
2023-07-20T14:13:54.027Z,28.65
2023-07-20T14:16:23.361Z,27.52
2023-07-20T14:18:51.920Z,27.52
2023-07-20T14:21:21.959Z,27.53
2023-07-20T14:23:53.936Z,26.33
2023-07-20T14:26:22.884Z,26.71
2023-07-20T14:28:51.349Z,27.13
2023-07-20T14:31:19.900Z,28.25
2023-07-20T14:33:49.263Z,28.24
2023-07-20T14:38:46.526Z,28.32
2023-07-20T14:41:14.297Z,27.73
2023-07-20T14:43:41.870Z,28.62
2023-07-20T14:46:09.648Z,28.66
2023-07-20T14:48:37.375Z,29.04
2023-07-20T14:51:06.544Z,30.87
2023-07-20T14:53:36.389Z,32.50
2023-07-20T14:56:05.520Z,30.51
2023-07-20T14:58:35.705Z,31.07
2023-07-20T15:01:04.555Z,30.54
2023-07-20T15:03:33.120Z,29.34
2023-07-20T15:06:01.787Z,31.96
2023-07-20T15:08:31.043Z,32.52
2023-07-20T15:10:58.722Z,32.97
2023-07-20T15:13:26.806Z,32.64
2023-07-20T15:15:54.560Z,33.92
2023-07-20T15:18:33.692Z,33.16
2023-07-20T15:21:09.672Z,32.77
2023-07-20T15:23:38.764Z,32.90
2023-07-20T15:26:06.409Z,31.35
2023-07-20T15:28:34.273Z,33.29
2023-07-20T15:31:03.109Z,33.69
2023-07-20T15:33:31.176Z,32.81
2023-07-20T15:35:59.134Z,32.22
2023-07-20T15:38:27.310Z,32.97
2023-07-20T15:40:58.439Z,32.94
2023-07-20T15:43:26.301Z,33.00
2023-07-20T15:46:06.261Z,32.53
2023-07-20T15:48:34.649Z,32.96
2023-07-20T15:51:02.841Z,33.78
2023-07-20T15:53:30.678Z,32.43
2023-07-20T15:55:59.684Z,32.55
2023-07-20T15:58:27.444Z,32.62
2023-07-20T16:00:57.245Z,31.76
2023-07-20T16:03:25.743Z,32.47
2023-07-20T16:05:54.446Z,32.56
2023-07-20T16:08:22.835Z,31.60
2023-07-20T16:10:51.024Z,32.64
2023-07-20T16:13:20.605Z,31.39
2023-07-20T16:18:19.051Z,31.68
2023-07-20T16:20:47.297Z,31.50
2023-07-20T16:23:15.514Z,30.83
2023-07-20T16:25:46.630Z,31.27
2023-07-20T16:28:14.325Z,30.04
2023-07-20T16:30:43.628Z,30.92
2023-07-20T16:33:11.372Z,30.85
2023-07-20T16:38:14.406Z,29.95
2023-07-20T16:43:13.678Z,29.93
2023-07-20T16:45:44.347Z,29.58
2023-07-20T16:48:12.206Z,29.56
2023-07-20T16:50:40.289Z,28.93
2023-07-20T16:53:08.066Z,29.25
2023-07-20T16:55:35.860Z,29.16
2023-07-20T16:58:03.509Z,29.77
2023-07-20T17:00:31.219Z,30.16
2023-07-20T17:03:00.399Z,30.30
2023-07-20T17:05:28.177Z,30.29
2023-07-20T17:07:56.523Z,30.27
2023-07-20T17:10:25.366Z,30.46
2023-07-20T17:12:53.280Z,30.28
2023-07-20T17:15:24.045Z,29.87
2023-07-20T17:17:53.091Z,29.86
2023-07-20T17:22:53.699Z,30.31
2023-07-20T17:30:23.039Z,30.21
2023-07-20T17:32:52.447Z,30.75
2023-07-20T17:35:21.920Z,30.30
2023-07-20T17:45:23.424Z,30.82
2023-07-20T17:47:51.445Z,29.97
2023-07-20T17:50:19.409Z,29.99
2023-07-20T17:52:47.186Z,30.37
2023-07-20T17:55:16.485Z,30.30
2023-07-20T17:57:44.183Z,30.73
2023-07-20T18:02:44.435Z,30.83
2023-07-20T18:05:12.272Z,30.94
2023-07-20T18:07:41.884Z,30.85
2023-07-20T18:10:10.280Z,30.15
2023-07-20T18:12:39.380Z,30.88
2023-07-20T18:15:08.428Z,30.70
2023-07-20T18:17:37.748Z,30.72
2023-07-20T18:20:07.497Z,30.62
2023-07-20T18:22:35.814Z,30.50
2023-07-20T18:25:06.135Z,30.88
2023-07-20T18:27:34.570Z,30.17
2023-07-20T18:30:03.690Z,30.79
2023-07-20T18:32:31.481Z,30.76
2023-07-20T18:34:59.344Z,31.27
2023-07-20T18:37:27.090Z,31.81
2023-07-20T18:39:54.980Z,32.46
2023-07-20T18:42:22.781Z,32.62
2023-07-20T18:44:51.942Z,33.33
2023-07-20T18:47:21.213Z,33.15
2023-07-20T18:49:49.121Z,34.20
2023-07-20T18:52:16.843Z,34.22
2023-07-20T18:54:44.850Z,34.22
2023-07-20T18:57:12.820Z,35.97
2023-07-20T18:59:42.243Z,36.71
2023-07-20T19:02:10.430Z,37.75
2023-07-20T19:04:39.632Z,37.05
2023-07-20T19:07:07.939Z,38.73
2023-07-20T19:09:35.992Z,38.12
2023-07-20T19:12:03.840Z,39.13
2023-07-20T19:14:31.859Z,39.33
2023-07-20T19:16:59.679Z,39.92
2023-07-20T19:19:27.521Z,39.99
2023-07-20T19:21:56.655Z,40.25
2023-07-20T19:24:24.458Z,39.44
2023-07-20T19:26:52.329Z,39.75
2023-07-20T19:29:20.372Z,40.13
2023-07-20T19:31:48.251Z,39.85
2023-07-20T19:34:16.392Z,39.18
2023-07-20T19:36:44.437Z,40.14
2023-07-20T19:39:13.963Z,40.20
2023-07-20T19:41:42.126Z,39.52
2023-07-20T19:44:10.634Z,39.91
2023-07-20T19:46:40.279Z,39.51
2023-07-20T19:49:08.284Z,39.61
2023-07-20T19:51:37.366Z,39.55
2023-07-20T19:56:37.553Z,39.47
2023-07-20T19:59:06.101Z,39.67
2023-07-20T20:06:35.466Z,40.10
2023-07-20T20:09:03.325Z,39.85
2023-07-20T20:11:31.199Z,39.84
2023-07-20T20:14:00.679Z,40.24
2023-07-20T20:16:28.725Z,39.92
2023-07-20T20:18:56.762Z,40.66
2023-07-20T20:21:24.751Z,40.86
2023-07-20T20:23:52.460Z,41.54
2023-07-20T20:26:20.313Z,41.77
2023-07-20T20:28:48.158Z,42.50
2023-07-20T20:31:17.340Z,42.47
2023-07-20T20:33:45.313Z,42.75
2023-07-20T20:36:13.001Z,43.10
2023-07-20T20:38:41.078Z,42.61
2023-07-20T20:41:08.933Z,43.01
2023-07-20T20:43:36.793Z,43.10
2023-07-20T20:46:06.204Z,43.28
2023-07-20T20:48:37.390Z,44.10
2023-07-20T20:51:05.462Z,44.58
2023-07-20T20:53:33.310Z,44.84
2023-07-20T20:56:01.131Z,45.17
2023-07-20T20:58:28.945Z,45.27
2023-07-20T21:01:00.560Z,44.95
2023-07-20T21:03:30.732Z,44.94
2023-07-20T21:05:59.828Z,44.77
2023-07-20T21:08:28.500Z,44.57
2023-07-20T21:10:59.859Z,44.68
2023-07-20T21:13:27.841Z,44.17
2023-07-20T21:15:56.269Z,44.35
2023-07-20T21:18:24.333Z,44.74
2023-07-20T21:20:52.216Z,44.31
2023-07-20T21:23:21.597Z,44.88
2023-07-20T21:25:50.190Z,44.57
2023-07-20T21:28:21.238Z,44.61
2023-07-20T21:31:02.653Z,44.35
2023-07-20T21:33:30.399Z,44.25
2023-07-20T21:35:58.323Z,44.38
2023-07-20T21:38:27.625Z,43.52
2023-07-20T21:40:55.536Z,43.73
2023-07-20T21:43:23.370Z,42.91
2023-07-20T21:45:51.316Z,42.83
2023-07-20T21:48:19.558Z,43.06
2023-07-20T21:50:50.456Z,46.30
2023-07-20T21:53:18.238Z,47.03
2023-07-20T21:55:49.850Z,46.68
2023-07-20T21:58:19.018Z,46.49
2023-07-20T22:00:48.265Z,46.41
2023-07-20T22:03:20.428Z,45.76
2023-07-20T22:05:49.074Z,45.35
2023-07-20T22:08:17.943Z,45.33
2023-07-20T22:10:46.994Z,45.18
2023-07-20T22:13:16.292Z,44.93
2023-07-20T22:15:44.013Z,44.58
2023-07-20T22:18:24.991Z,45.25
2023-07-20T22:20:59.753Z,47.63
2023-07-20T22:23:28.104Z,49.55
2023-07-20T22:25:57.339Z,50.00
2023-07-20T22:28:24.993Z,50.17
2023-07-20T22:30:53.815Z,49.62
2023-07-20T22:33:21.768Z,48.96
2023-07-20T22:35:50.717Z,48.19
2023-07-20T22:38:18.347Z,47.84
2023-07-20T22:40:46.309Z,47.53
2023-07-20T22:43:15.298Z,49.29
2023-07-20T22:45:43.070Z,50.09
2023-07-20T22:48:10.783Z,50.81
2023-07-20T22:50:39.373Z,50.67
2023-07-20T22:53:07.119Z,50.25
2023-07-20T22:55:34.785Z,49.97
2023-07-20T22:58:02.429Z,50.55
2023-07-20T23:00:32.337Z,50.76
2023-07-20T23:03:00.227Z,51.23
2023-07-20T23:05:28.120Z,51.98
2023-07-20T23:07:56.378Z,52.44
2023-07-20T23:10:24.041Z,52.50
2023-07-20T23:12:51.679Z,52.39
2023-07-20T23:15:19.759Z,52.86
2023-07-20T23:17:49.327Z,53.31
2023-07-20T23:20:20.071Z,53.10
2023-07-20T23:22:49.982Z,53.28
2023-07-20T23:25:19.183Z,53.44
2023-07-20T23:27:47.471Z,53.45
2023-07-20T23:30:16.156Z,53.49
2023-07-20T23:32:45.334Z,53.80
2023-07-20T23:35:16.074Z,54.84
2023-07-20T23:37:44.205Z,54.89
2023-07-20T23:40:15.366Z,54.92
2023-07-20T23:42:43.879Z,55.35
2023-07-20T23:45:13.192Z,55.42
2023-07-20T23:47:40.941Z,55.20
2023-07-20T23:50:10.731Z,55.13
2023-07-20T23:52:41.306Z,55.56
2023-07-20T23:55:10.675Z,55.22
2023-07-20T23:57:39.154Z,55.39
